The Internet Pinball Serial Number Database or IPSND collects serial numbers of pinball machines and publishes a database of these on the Internet. Our goal is to make available a registration of all pinball machines in existence and allow tools for slicing, dicing and visualization of the data.

Games: 6,423  Serials: 56,314  Visitors: 44,593,212  Members: 4,430  Photos: 32,688  Lat/Lng: 27,920  Masks: 56,314(876.76 %)  Traits: 545  Nudges: 166,111  Backglasses: 1,865
  Most Serials: Twilight Zone(1,145)  Most Submissions: Dennis Braun(4,937)  Most Points: Dennis Braun(36,784)  Highest Quality: EM-fan(9.54)  Most Nudges: King of Pinball(21,959)
Submitter: Fun House
Member Since: Thursday, September 22, 2016
Submissions: 3,289 (2nd)
SerialBot: 27,160 Points Total (3rd), 7.24 Average Score (3,698th)
Nudges: 3,343(15th)
DateGameSerialNumberGame PartSerialBotDetails
 Item 1 to 100 of 3289
Page:of 33 Page size:
1/23/2021 Hurricane 50012I835606 Other Parts 50012I835606
1/23/2021 Terminator 2: Judgment Day 50013I978274 Other Parts 50013I978274
1/23/2021 Terminator 2: Judgment Day 50013I776358 Other Parts 50013I776358
1/23/2021 Judge Dredd 20420256492 Other Parts 20420256492
1/23/2021 Centaur ECE3011 Other Parts ECE3011
1/23/2021 Sorcerer 53257428 Other Parts 53257428
1/23/2021 The Addams Family 20017I598095 Other Parts 20017I598095
1/23/2021 Road Kings 542I46439 Other Parts 542I46439
1/23/2021 Funhouse 50003I577024 Other Parts 50003I577024
1/23/2021 20009I606161 Other Parts 20009I606161
1/23/2021 Star Trek: The Next Generation 50223490502 Other Parts 50223490502
1/23/2021 The Flintstones 52529104260 Other Parts 52529104260
1/23/2021 Diamond Lady 39465 Complete Game 39465
1/23/2021 High Speed 541I83795 Other Parts 541I83795
1/23/2021 High Speed 541I83559 Other Parts 541I83559
1/19/2021 Doctor Who 20106664010 Other Parts 20106664010
1/19/2021 Bram Stoker's Dracula 50701058922 Other Parts 50701058922
1/19/2021 Doctor Who 22706668750 Other Parts 22706668750
1/19/2021 Taxi 553163329 Complete Game 553163329
1/19/2021 Super Mario Bros. 91343 Complete Game 91343
1/16/2021 Tee'd Off 112759 Complete Game 112759
1/16/2021 The Avengers Infinity Quest (Limited Edition) 307442 Complete Game 307442
1/16/2021 Mystery Castle 3406 Complete Game 3406
1/16/2021 Attack From Mars (Remake Special Edition) AFM3258 Complete Game AFM3258
1/2/2021 Indiana Jones: The Pinball Adventure 50217253972 Complete Game 50217253972
12/28/2020 F-14 Tomcat 55494844 Complete Game 55494844
12/22/2020 Willy Wonka & The Chocolate Factory (Standard Edition) 08742211 Complete Game 08742211
12/22/2020 Jacks Open 7880 Complete Game 7880
12/5/2020 Sing Along 05083 Complete Game 05083
12/5/2020 AC/DC (LUCI Vault Edition) 277034 Complete Game 277034
12/5/2020 Paragon EPA2123 Complete Game EPA2123
12/5/2020 The Wizard of Oz Emerald City Limited Edition 08701868 Complete Game 08701868
12/5/2020 Johnny Mnemonic 53342102457 Complete Game 53342102457
12/5/2020 Embryon EEM2312 Complete Game EEM2312
12/5/2020 Eight Ball Deluxe EED5804 Complete Game EED5804
12/5/2020 Red & Ted's Road Show 53324103055 Complete Game 53324103055
12/5/2020 Mustang (Limited Edition) 246545 Complete Game 246545
12/4/2020 Theatre of Magic 52239103149 Other Parts 52239103149
12/4/2020 Red & Ted's Road Show 50224100536 Complete Game 50224100536
12/4/2020 The Getaway: High Speed II 50004I857935 Other Parts 50004I857935
12/4/2020 Bram Stoker's Dracula 52501062902 Other Parts 52501062902
12/4/2020 Fish Tales 50005I026898 Other Parts 50005I026898
12/4/2020 No Fear: Dangerous Sports 51425100616 Complete Game 51425100616
12/4/2020 Revenge From Mars 50270111429 Complete Game 50270111429
12/4/2020 Harley-Davidson 20001I656327 Other Parts 20001I656327
12/4/2020 The Machine: Bride of Pin·bot 50002I665787 Complete Game 50002I665787
12/4/2020 Funhouse 50003I578145 Other Parts 50003I578145
12/4/2020 Terminator 2: Judgment Day 50013I775242 Other Parts 50013I775242
12/4/2020 The Machine: Bride of Pin·bot 50002I665161 Complete Game 50002I665161
12/4/2020 World Cup Soccer 51031102869 Other Parts 51031102869
12/4/2020 Indiana Jones: The Pinball Adventure 51417158182 Complete Game 51417158182
12/4/2020 Indiana Jones: The Pinball Adventure 51017246571 Complete Game 51017246571
12/4/2020 Creature from the Black Lagoon 22518925920 Other Parts 22518925920
12/4/2020 Judge Dredd 21420253082 Other Parts 21420253082
12/4/2020 The Shadow 53332104547 Other Parts 53332104547
12/4/2020 The Getaway: High Speed II 50004I855552 Complete Game 50004I855552
12/4/2020 Creature from the Black Lagoon 20218019671 Complete Game 20218019671
12/4/2020 The Getaway: High Speed II 50004I855111 Other Parts 50004I855111
12/4/2020 The Addams Family 20017I042620 Complete Game 20017I042620
12/4/2020 Skateball ESB3093 Complete Game ESB3093
11/23/2020 The Flintstones 53329100282 Other Parts 53329100282
11/23/2020 Johnny Mnemonic 53342102593 Other Parts 53342102593
11/23/2020 Silverball Mania ESM6268 Complete Game ESM6268
11/23/2020 Dr. Dude And His Excellent Ray 2016491271 Other Parts 2016491271
11/21/2020 F-14 Tomcat 55499371 Complete Game 55499371
11/18/2020 Medieval Madness (Remake Standard Edition) MM1390 Complete Game MM1390
11/18/2020 Spin Out 01002 Complete Game 01002
11/16/2020 Honey 130582 Complete Game 130582
11/16/2020 Space Odyssey 268588 Complete Game 268588
11/16/2020 Xenon EXE1909 Complete Game EXE1909
11/15/2020 The Sopranos® 190441 Complete Game 190441
11/15/2020 Defender 614610 Complete Game 614610
11/14/2020 The Getaway: High Speed II 50004I858806 Other Parts 50004I858806
11/14/2020 The Getaway: High Speed II 50004I857975 Complete Game 50004I857975
11/14/2020 Funhouse 50003I745878 Complete Game 50003I745878
11/14/2020 The Machine: Bride of Pin·bot 50002I665759 Other Parts 50002I665759
11/14/2020 Funhouse 50003I575197 Complete Game 50003I575197
11/14/2020 The Addams Family 20017I044504 Other Parts 20017I044504
11/14/2020 Creature from the Black Lagoon 20218962750 Other Parts 20218962750
11/14/2020 The Flintstones 52829101982 Complete Game 52829101982
11/14/2020 World Cup Soccer 51431104573 Other Parts 51431104573
11/14/2020 Doctor Who 20006I066354 Complete Game 20006I066354
11/14/2020 Hurricane 50012I837099 Other Parts 50012I837099
11/14/2020 Fish Tales 50005I195691 Other Parts 50005I195691
11/14/2020 The Shadow 51432102083 Other Parts 51432102083
11/14/2020 Doctor Who 21406627090 Complete Game 21406627090
11/14/2020 Bram Stoker's Dracula 51401961370 Other Parts 51401961370
11/14/2020 World Cup Soccer 51431104705 Other Parts 51431104705
11/14/2020 Demolition Man 51428437422 Complete Game 51428437422
11/14/2020 Popeye Saves the Earth 50222338132 Other Parts 50222338132
11/14/2020 Twilight Zone 51420204172 Other Parts 51420204172
11/14/2020 Demolition Man 52228470421 Complete Game 52228470421
11/14/2020 Creature from the Black Lagoon 21018898670 Other Parts 21018898670
11/14/2020 Sea Shore 07215 Complete Game 07215
11/14/2020 Teenage Mutant Ninja Turtles (Pro) 306971 Complete Game 306971
11/14/2020 Eight Ball Deluxe EED6311 Complete Game EED6311
11/14/2020 Star Trek: The Next Generation 51423405181 Other Parts 51423405181
11/14/2020 Fast Draw 12983 Complete Game 12983
11/14/2020 Star Wars (Pro) 279205 Complete Game 279205
11/14/2020 Paragon EPA2105 Complete Game EPA2105